sensor_id;sensor_type;location;lat;lon;timestamp;P1;durP1;ratioP1;P2;durP2;ratioP2
47053;SDS011;32811;52.382;5.270;2023-08-12T00:00:05;4.85;;;1.98;;
47053;SDS011;32811;52.382;5.270;2023-08-12T00:02:38;6.07;;;3.05;;
47053;SDS011;32811;52.382;5.270;2023-08-12T00:05:06;3.13;;;1.65;;
47053;SDS011;32811;52.382;5.270;2023-08-12T00:07:34;4.22;;;1.63;;
47053;SDS011;32811;52.382;5.270;2023-08-12T00:10:01;5.88;;;2.55;;
47053;SDS011;32811;52.382;5.270;2023-08-12T00:12:31;4.50;;;1.27;;
47053;SDS011;32811;52.382;5.270;2023-08-12T00:14:58;3.58;;;2.17;;
47053;SDS011;32811;52.382;5.270;2023-08-12T00:17:25;4.00;;;1.98;;
47053;SDS011;32811;52.382;5.270;2023-08-12T00:19:52;4.53;;;2.05;;
47053;SDS011;32811;52.382;5.270;2023-08-12T00:22:19;4.10;;;2.75;;
47053;SDS011;32811;52.382;5.270;2023-08-12T00:24:46;7.25;;;2.10;;
47053;SDS011;32811;52.382;5.270;2023-08-12T00:27:12;6.30;;;2.40;;
47053;SDS011;32811;52.382;5.270;2023-08-12T00:29:39;2.33;;;1.63;;
47053;SDS011;32811;52.382;5.270;2023-08-12T00:32:08;4.63;;;2.72;;
47053;SDS011;32811;52.382;5.270;2023-08-12T00:34:35;4.47;;;2.30;;
47053;SDS011;32811;52.382;5.270;2023-08-12T00:37:02;11.80;;;4.90;;
47053;SDS011;32811;52.382;5.270;2023-08-12T00:39:29;10.07;;;4.90;;
47053;SDS011;32811;52.382;5.270;2023-08-12T00:41:56;9.43;;;4.70;;
47053;SDS011;32811;52.382;5.270;2023-08-12T00:44:22;9.32;;;4.32;;
47053;SDS011;32811;52.382;5.270;2023-08-12T00:46:49;8.45;;;4.82;;
47053;SDS011;32811;52.382;5.270;2023-08-12T00:49:17;10.90;;;4.13;;
47053;SDS011;32811;52.382;5.270;2023-08-12T00:51:44;7.88;;;4.45;;
47053;SDS011;32811;52.382;5.270;2023-08-12T00:54:13;12.00;;;4.70;;
47053;SDS011;32811;52.382;5.270;2023-08-12T00:56:41;10.40;;;5.50;;
47053;SDS011;32811;52.382;5.270;2023-08-12T00:59:08;8.45;;;5.03;;
47053;SDS011;32811;52.382;5.270;2023-08-12T01:01:38;8.95;;;4.30;;
47053;SDS011;32811;52.382;5.270;2023-08-12T01:04:10;8.57;;;4.47;;
47053;SDS011;32811;52.382;5.270;2023-08-12T01:06:37;8.45;;;4.38;;
47053;SDS011;32811;52.382;5.270;2023-08-12T01:09:04;5.68;;;3.75;;
47053;SDS011;32811;52.382;5.270;2023-08-12T01:14:27;7.97;;;3.58;;
47053;SDS011;32811;52.382;5.270;2023-08-12T01:17:00;4.78;;;3.20;;
47053;SDS011;32811;52.382;5.270;2023-08-12T01:19:35;6.90;;;4.45;;
47053;SDS011;32811;52.382;5.270;2023-08-12T01:22:04;9.10;;;4.07;;
47053;SDS011;32811;52.382;5.270;2023-08-12T01:24:34;6.50;;;4.10;;
47053;SDS011;32811;52.382;5.270;2023-08-12T01:27:04;7.05;;;4.40;;
47053;SDS011;32811;52.382;5.270;2023-08-12T01:29:33;7.43;;;3.85;;
47053;SDS011;32811;52.382;5.270;2023-08-12T01:32:05;6.53;;;3.92;;
47053;SDS011;32811;52.382;5.270;2023-08-12T01:34:42;11.15;;;4.47;;
47053;SDS011;32811;52.382;5.270;2023-08-12T01:37:12;4.50;;;3.45;;
47053;SDS011;32811;52.382;5.270;2023-08-12T01:39:43;5.30;;;3.38;;
47053;SDS011;32811;52.382;5.270;2023-08-12T01:42:13;7.65;;;4.00;;
47053;SDS011;32811;52.382;5.270;2023-08-12T01:44:40;12.27;;;3.83;;
47053;SDS011;32811;52.382;5.270;2023-08-12T01:47:08;6.13;;;4.05;;
47053;SDS011;32811;52.382;5.270;2023-08-12T01:49:36;6.53;;;2.97;;
47053;SDS011;32811;52.382;5.270;2023-08-12T01:52:02;6.97;;;3.72;;
47053;SDS011;32811;52.382;5.270;2023-08-12T01:54:29;5.88;;;3.15;;
47053;SDS011;32811;52.382;5.270;2023-08-12T01:57:03;6.57;;;2.95;;
47053;SDS011;32811;52.382;5.270;2023-08-12T01:59:35;5.38;;;3.17;;
47053;SDS011;32811;52.382;5.270;2023-08-12T02:02:02;5.40;;;3.20;;
47053;SDS011;32811;52.382;5.270;2023-08-12T02:04:29;5.57;;;3.17;;
47053;SDS011;32811;52.382;5.270;2023-08-12T02:06:56;5.35;;;3.17;;
47053;SDS011;32811;52.382;5.270;2023-08-12T02:09:23;4.35;;;3.28;;
47053;SDS011;32811;52.382;5.270;2023-08-12T02:11:49;6.82;;;3.50;;
47053;SDS011;32811;52.382;5.270;2023-08-12T02:14:16;6.10;;;3.88;;
47053;SDS011;32811;52.382;5.270;2023-08-12T02:16:42;11.35;;;5.22;;
47053;SDS011;32811;52.382;5.270;2023-08-12T02:19:09;4.78;;;2.80;;
47053;SDS011;32811;52.382;5.270;2023-08-12T02:21:36;7.40;;;4.10;;
47053;SDS011;32811;52.382;5.270;2023-08-12T02:24:02;4.18;;;3.03;;
47053;SDS011;32811;52.382;5.270;2023-08-12T02:26:29;5.07;;;3.50;;
47053;SDS011;32811;52.382;5.270;2023-08-12T02:28:56;8.35;;;4.03;;
47053;SDS011;32811;52.382;5.270;2023-08-12T02:31:23;6.75;;;4.38;;
47053;SDS011;32811;52.382;5.270;2023-08-12T02:33:50;5.90;;;3.58;;
47053;SDS011;32811;52.382;5.270;2023-08-12T02:36:17;7.00;;;4.00;;
47053;SDS011;32811;52.382;5.270;2023-08-12T02:38:43;6.95;;;4.05;;
47053;SDS011;32811;52.382;5.270;2023-08-12T02:41:10;7.55;;;3.60;;
47053;SDS011;32811;52.382;5.270;2023-08-12T02:43:36;8.15;;;3.65;;
47053;SDS011;32811;52.382;5.270;2023-08-12T02:46:03;7.38;;;4.20;;
47053;SDS011;32811;52.382;5.270;2023-08-12T02:48:30;9.00;;;3.67;;
47053;SDS011;32811;52.382;5.270;2023-08-12T02:50:57;8.65;;;4.25;;
47053;SDS011;32811;52.382;5.270;2023-08-12T02:53:23;9.93;;;4.00;;
47053;SDS011;32811;52.382;5.270;2023-08-12T02:55:50;14.90;;;4.47;;
47053;SDS011;32811;52.382;5.270;2023-08-12T02:58:17;5.70;;;3.53;;
47053;SDS011;32811;52.382;5.270;2023-08-12T03:00:43;9.82;;;4.47;;
47053;SDS011;32811;52.382;5.270;2023-08-12T03:03:10;6.75;;;4.72;;
47053;SDS011;32811;52.382;5.270;2023-08-12T03:05:37;9.32;;;4.90;;
47053;SDS011;32811;52.382;5.270;2023-08-12T03:08:04;6.93;;;5.35;;
47053;SDS011;32811;52.382;5.270;2023-08-12T03:10:31;8.52;;;5.47;;
47053;SDS011;32811;52.382;5.270;2023-08-12T03:13:00;14.35;;;6.25;;
47053;SDS011;32811;52.382;5.270;2023-08-12T03:15:26;11.82;;;5.65;;
47053;SDS011;32811;52.382;5.270;2023-08-12T03:17:53;9.65;;;6.88;;
47053;SDS011;32811;52.382;5.270;2023-08-12T03:20:20;9.63;;;6.22;;
47053;SDS011;32811;52.382;5.270;2023-08-12T03:22:46;10.35;;;5.85;;
47053;SDS011;32811;52.382;5.270;2023-08-12T03:25:13;8.40;;;5.85;;
47053;SDS011;32811;52.382;5.270;2023-08-12T03:27:43;15.75;;;7.80;;
47053;SDS011;32811;52.382;5.270;2023-08-12T03:30:10;11.23;;;7.50;;
47053;SDS011;32811;52.382;5.270;2023-08-12T03:32:37;11.13;;;6.90;;
47053;SDS011;32811;52.382;5.270;2023-08-12T03:35:04;13.38;;;7.35;;
47053;SDS011;32811;52.382;5.270;2023-08-12T03:37:30;9.98;;;6.63;;
47053;SDS011;32811;52.382;5.270;2023-08-12T03:39:57;12.23;;;7.50;;
47053;SDS011;32811;52.382;5.270;2023-08-12T03:42:24;14.07;;;7.65;;
47053;SDS011;32811;52.382;5.270;2023-08-12T03:44:50;11.85;;;7.80;;
47053;SDS011;32811;52.382;5.270;2023-08-12T03:47:17;16.08;;;7.40;;
47053;SDS011;32811;52.382;5.270;2023-08-12T03:49:48;13.48;;;7.63;;
47053;SDS011;32811;52.382;5.270;2023-08-12T03:52:14;15.68;;;8.50;;
47053;SDS011;32811;52.382;5.270;2023-08-12T03:54:42;11.63;;;7.90;;
47053;SDS011;32811;52.382;5.270;2023-08-12T03:57:09;12.93;;;8.00;;
47053;SDS011;32811;52.382;5.270;2023-08-12T03:59:36;16.38;;;8.20;;
47053;SDS011;32811;52.382;5.270;2023-08-12T04:02:03;14.02;;;7.75;;
47053;SDS011;32811;52.382;5.270;2023-08-12T04:04:30;13.20;;;7.13;;
47053;SDS011;32811;52.382;5.270;2023-08-12T04:06:57;12.93;;;7.93;;
47053;SDS011;32811;52.382;5.270;2023-08-12T04:09:23;12.35;;;7.25;;
47053;SDS011;32811;52.382;5.270;2023-08-12T04:11:50;13.38;;;8.77;;
47053;SDS011;32811;52.382;5.270;2023-08-12T04:14:17;15.55;;;9.60;;
47053;SDS011;32811;52.382;5.270;2023-08-12T04:16:43;12.57;;;7.45;;
47053;SDS011;32811;52.382;5.270;2023-08-12T04:19:10;10.60;;;7.60;;
47053;SDS011;32811;52.382;5.270;2023-08-12T04:21:37;10.68;;;7.75;;
47053;SDS011;32811;52.382;5.270;2023-08-12T04:24:03;12.48;;;7.20;;
47053;SDS011;32811;52.382;5.270;2023-08-12T04:26:30;11.52;;;7.15;;
47053;SDS011;32811;52.382;5.270;2023-08-12T04:28:57;10.93;;;6.70;;
47053;SDS011;32811;52.382;5.270;2023-08-12T04:31:23;12.27;;;8.35;;
47053;SDS011;32811;52.382;5.270;2023-08-12T04:33:50;11.27;;;7.82;;
47053;SDS011;32811;52.382;5.270;2023-08-12T04:36:19;11.90;;;7.97;;
47053;SDS011;32811;52.382;5.270;2023-08-12T04:38:46;9.75;;;7.55;;
47053;SDS011;32811;52.382;5.270;2023-08-12T04:41:12;14.32;;;7.90;;
47053;SDS011;32811;52.382;5.270;2023-08-12T04:43:39;12.80;;;9.18;;
47053;SDS011;32811;52.382;5.270;2023-08-12T04:46:06;11.35;;;7.35;;
47053;SDS011;32811;52.382;5.270;2023-08-12T04:48:33;14.07;;;7.75;;
47053;SDS011;32811;52.382;5.270;2023-08-12T04:50:59;12.65;;;8.40;;
47053;SDS011;32811;52.382;5.270;2023-08-12T04:53:27;11.13;;;8.18;;
47053;SDS011;32811;52.382;5.270;2023-08-12T04:55:55;12.25;;;8.90;;
47053;SDS011;32811;52.382;5.270;2023-08-12T04:58:22;12.88;;;8.32;;
47053;SDS011;32811;52.382;5.270;2023-08-12T05:00:50;15.23;;;8.00;;
47053;SDS011;32811;52.382;5.270;2023-08-12T05:03:18;10.25;;;8.23;;
47053;SDS011;32811;52.382;5.270;2023-08-12T05:05:48;11.45;;;8.13;;
47053;SDS011;32811;52.382;5.270;2023-08-12T05:08:18;9.00;;;8.10;;
47053;SDS011;32811;52.382;5.270;2023-08-12T05:10:48;12.15;;;7.70;;
47053;SDS011;32811;52.382;5.270;2023-08-12T05:13:16;12.93;;;7.65;;
47053;SDS011;32811;52.382;5.270;2023-08-12T05:15:47;13.65;;;7.43;;
47053;SDS011;32811;52.382;5.270;2023-08-12T05:18:14;11.10;;;6.97;;
47053;SDS011;32811;52.382;5.270;2023-08-12T05:20:41;11.82;;;8.75;;
47053;SDS011;32811;52.382;5.270;2023-08-12T05:23:12;12.20;;;7.95;;
47053;SDS011;32811;52.382;5.270;2023-08-12T05:25:39;11.68;;;8.60;;
47053;SDS011;32811;52.382;5.270;2023-08-12T05:28:06;9.05;;;7.13;;
47053;SDS011;32811;52.382;5.270;2023-08-12T05:30:34;10.77;;;6.95;;
47053;SDS011;32811;52.382;5.270;2023-08-12T05:33:01;9.20;;;7.43;;
47053;SDS011;32811;52.382;5.270;2023-08-12T05:35:32;16.40;;;8.43;;
47053;SDS011;32811;52.382;5.270;2023-08-12T05:37:59;10.52;;;7.63;;
47053;SDS011;32811;52.382;5.270;2023-08-12T05:40:26;12.20;;;8.00;;
47053;SDS011;32811;52.382;5.270;2023-08-12T05:42:53;13.98;;;7.60;;
47053;SDS011;32811;52.382;5.270;2023-08-12T05:45:20;12.93;;;8.75;;
47053;SDS011;32811;52.382;5.270;2023-08-12T05:47:47;12.32;;;9.65;;
47053;SDS011;32811;52.382;5.270;2023-08-12T05:50:13;18.25;;;8.27;;
47053;SDS011;32811;52.382;5.270;2023-08-12T05:52:40;11.93;;;8.05;;
47053;SDS011;32811;52.382;5.270;2023-08-12T05:55:07;11.48;;;7.47;;
47053;SDS011;32811;52.382;5.270;2023-08-12T05:57:34;12.43;;;7.68;;
47053;SDS011;32811;52.382;5.270;2023-08-12T06:00:00;15.50;;;8.18;;
47053;SDS011;32811;52.382;5.270;2023-08-12T06:02:27;11.80;;;7.68;;
47053;SDS011;32811;52.382;5.270;2023-08-12T06:04:54;14.32;;;9.05;;
47053;SDS011;32811;52.382;5.270;2023-08-12T06:07:21;11.93;;;7.80;;
47053;SDS011;32811;52.382;5.270;2023-08-12T06:09:49;16.55;;;9.05;;
47053;SDS011;32811;52.382;5.270;2023-08-12T06:12:17;14.35;;;10.00;;
47053;SDS011;32811;52.382;5.270;2023-08-12T06:14:43;10.30;;;8.38;;
47053;SDS011;32811;52.382;5.270;2023-08-12T06:17:10;11.35;;;8.02;;
47053;SDS011;32811;52.382;5.270;2023-08-12T06:19:36;11.85;;;7.15;;
47053;SDS011;32811;52.382;5.270;2023-08-12T06:22:03;9.43;;;7.45;;
47053;SDS011;32811;52.382;5.270;2023-08-12T06:24:30;17.85;;;9.07;;
47053;SDS011;32811;52.382;5.270;2023-08-12T06:26:56;12.45;;;8.80;;
47053;SDS011;32811;52.382;5.270;2023-08-12T06:29:23;12.57;;;8.15;;
47053;SDS011;32811;52.382;5.270;2023-08-12T06:31:50;9.88;;;7.13;;
47053;SDS011;32811;52.382;5.270;2023-08-12T06:34:17;13.18;;;8.20;;
47053;SDS011;32811;52.382;5.270;2023-08-12T06:36:44;12.13;;;8.43;;
47053;SDS011;32811;52.382;5.270;2023-08-12T06:39:10;10.60;;;8.27;;
47053;SDS011;32811;52.382;5.270;2023-08-12T06:41:37;10.43;;;7.45;;
47053;SDS011;32811;52.382;5.270;2023-08-12T06:44:04;14.25;;;8.23;;
47053;SDS011;32811;52.382;5.270;2023-08-12T06:46:31;12.50;;;7.45;;
47053;SDS011;32811;52.382;5.270;2023-08-12T06:48:58;13.60;;;8.82;;
47053;SDS011;32811;52.382;5.270;2023-08-12T06:51:25;12.85;;;9.52;;
47053;SDS011;32811;52.382;5.270;2023-08-12T06:53:52;11.02;;;8.30;;
47053;SDS011;32811;52.382;5.270;2023-08-12T06:56:18;9.52;;;7.00;;
47053;SDS011;32811;52.382;5.270;2023-08-12T06:58:45;8.50;;;6.63;;
47053;SDS011;32811;52.382;5.270;2023-08-12T07:01:11;7.65;;;6.82;;
47053;SDS011;32811;52.382;5.270;2023-08-12T07:03:40;10.25;;;6.90;;
47053;SDS011;32811;52.382;5.270;2023-08-12T07:06:07;8.63;;;4.70;;
47053;SDS011;32811;52.382;5.270;2023-08-12T07:08:34;6.68;;;4.90;;
47053;SDS011;32811;52.382;5.270;2023-08-12T07:11:00;8.75;;;4.22;;
47053;SDS011;32811;52.382;5.270;2023-08-12T07:13:27;5.60;;;4.47;;
47053;SDS011;32811;52.382;5.270;2023-08-12T07:15:54;4.20;;;3.13;;
47053;SDS011;32811;52.382;5.270;2023-08-12T07:18:20;6.35;;;2.97;;
47053;SDS011;32811;52.382;5.270;2023-08-12T07:20:49;5.95;;;2.45;;
47053;SDS011;32811;52.382;5.270;2023-08-12T07:23:16;6.00;;;2.08;;
47053;SDS011;32811;52.382;5.270;2023-08-12T07:25:45;5.47;;;2.33;;
47053;SDS011;32811;52.382;5.270;2023-08-12T07:28:13;4.13;;;1.95;;
47053;SDS011;32811;52.382;5.270;2023-08-12T07:30:40;5.32;;;2.25;;
47053;SDS011;32811;52.382;5.270;2023-08-12T07:33:06;3.35;;;2.00;;
47053;SDS011;32811;52.382;5.270;2023-08-12T07:35:33;2.72;;;1.85;;
47053;SDS011;32811;52.382;5.270;2023-08-12T07:38:00;2.92;;;1.80;;
47053;SDS011;32811;52.382;5.270;2023-08-12T07:40:27;5.05;;;1.63;;
47053;SDS011;32811;52.382;5.270;2023-08-12T07:42:53;3.65;;;1.60;;
47053;SDS011;32811;52.382;5.270;2023-08-12T07:45:21;3.50;;;2.53;;
47053;SDS011;32811;52.382;5.270;2023-08-12T07:47:51;2.22;;;1.38;;
47053;SDS011;32811;52.382;5.270;2023-08-12T07:50:17;4.43;;;1.75;;
47053;SDS011;32811;52.382;5.270;2023-08-12T07:52:44;6.20;;;1.77;;
47053;SDS011;32811;52.382;5.270;2023-08-12T07:55:11;3.30;;;1.67;;
47053;SDS011;32811;52.382;5.270;2023-08-12T07:57:39;2.97;;;1.58;;
47053;SDS011;32811;52.382;5.270;2023-08-12T08:00:06;2.13;;;1.73;;
47053;SDS011;32811;52.382;5.270;2023-08-12T08:02:34;2.38;;;1.70;;
47053;SDS011;32811;52.382;5.270;2023-08-12T08:05:01;2.88;;;1.73;;
47053;SDS011;32811;52.382;5.270;2023-08-12T08:07:29;3.13;;;1.50;;
47053;SDS011;32811;52.382;5.270;2023-08-12T08:09:55;1.85;;;1.70;;
47053;SDS011;32811;52.382;5.270;2023-08-12T08:12:22;2.40;;;1.63;;
47053;SDS011;32811;52.382;5.270;2023-08-12T08:14:49;3.33;;;1.95;;
47053;SDS011;32811;52.382;5.270;2023-08-12T08:17:15;3.55;;;1.55;;
47053;SDS011;32811;52.382;5.270;2023-08-12T08:19:42;1.50;;;1.30;;
47053;SDS011;32811;52.382;5.270;2023-08-12T08:22:09;4.40;;;1.33;;
47053;SDS011;32811;52.382;5.270;2023-08-12T08:24:36;2.83;;;1.80;;
47053;SDS011;32811;52.382;5.270;2023-08-12T08:27:02;1.23;;;0.85;;
47053;SDS011;32811;52.382;5.270;2023-08-12T08:29:30;1.80;;;1.10;;
47053;SDS011;32811;52.382;5.270;2023-08-12T08:31:57;3.55;;;1.42;;
47053;SDS011;32811;52.382;5.270;2023-08-12T08:34:23;5.20;;;0.80;;
47053;SDS011;32811;52.382;5.270;2023-08-12T08:36:50;1.98;;;1.10;;
47053;SDS011;32811;52.382;5.270;2023-08-12T08:39:18;1.67;;;0.60;;
47053;SDS011;32811;52.382;5.270;2023-08-12T08:41:44;1.70;;;0.68;;
47053;SDS011;32811;52.382;5.270;2023-08-12T08:44:14;1.50;;;0.52;;
47053;SDS011;32811;52.382;5.270;2023-08-12T08:46:41;1.27;;;0.50;;
47053;SDS011;32811;52.382;5.270;2023-08-12T08:49:10;2.17;;;0.80;;
47053;SDS011;32811;52.382;5.270;2023-08-12T08:51:38;2.13;;;0.70;;
47053;SDS011;32811;52.382;5.270;2023-08-12T08:54:05;3.58;;;1.02;;
47053;SDS011;32811;52.382;5.270;2023-08-12T08:56:32;2.58;;;0.73;;
47053;SDS011;32811;52.382;5.270;2023-08-12T08:59:00;5.38;;;0.80;;
47053;SDS011;32811;52.382;5.270;2023-08-12T09:01:27;4.90;;;0.88;;
47053;SDS011;32811;52.382;5.270;2023-08-12T09:03:55;9.93;;;1.70;;
47053;SDS011;32811;52.382;5.270;2023-08-12T09:06:24;3.22;;;0.88;;
47053;SDS011;32811;52.382;5.270;2023-08-12T09:08:52;4.07;;;0.95;;
47053;SDS011;32811;52.382;5.270;2023-08-12T09:11:20;5.88;;;0.82;;
47053;SDS011;32811;52.382;5.270;2023-08-12T09:13:47;3.40;;;0.90;;
47053;SDS011;32811;52.382;5.270;2023-08-12T09:16:14;7.78;;;0.70;;
47053;SDS011;32811;52.382;5.270;2023-08-12T09:18:42;2.75;;;0.68;;
47053;SDS011;32811;52.382;5.270;2023-08-12T09:21:10;6.30;;;1.02;;
47053;SDS011;32811;52.382;5.270;2023-08-12T09:23:38;2.08;;;0.80;;
47053;SDS011;32811;52.382;5.270;2023-08-12T09:26:10;2.95;;;0.80;;
47053;SDS011;32811;52.382;5.270;2023-08-12T09:28:42;4.55;;;0.90;;
47053;SDS011;32811;52.382;5.270;2023-08-12T09:31:22;3.72;;;0.90;;
47053;SDS011;32811;52.382;5.270;2023-08-12T09:33:51;3.75;;;0.93;;
47053;SDS011;32811;52.382;5.270;2023-08-12T09:36:18;3.50;;;0.77;;
47053;SDS011;32811;52.382;5.270;2023-08-12T09:38:47;6.18;;;1.17;;
47053;SDS011;32811;52.382;5.270;2023-08-12T09:41:14;3.13;;;0.93;;
47053;SDS011;32811;52.382;5.270;2023-08-12T09:43:41;2.55;;;0.65;;
47053;SDS011;32811;52.382;5.270;2023-08-12T09:46:12;2.47;;;0.88;;
47053;SDS011;32811;52.382;5.270;2023-08-12T09:48:42;3.45;;;1.00;;
47053;SDS011;32811;52.382;5.270;2023-08-12T09:51:09;6.22;;;1.30;;
47053;SDS011;32811;52.382;5.270;2023-08-12T09:53:37;9.75;;;1.20;;
47053;SDS011;32811;52.382;5.270;2023-08-12T09:56:05;5.80;;;1.10;;
47053;SDS011;32811;52.382;5.270;2023-08-12T09:58:35;3.92;;;1.00;;
47053;SDS011;32811;52.382;5.270;2023-08-12T10:01:03;6.63;;;1.30;;
47053;SDS011;32811;52.382;5.270;2023-08-12T10:03:33;2.72;;;0.88;;
47053;SDS011;32811;52.382;5.270;2023-08-12T10:06:00;6.88;;;1.05;;
47053;SDS011;32811;52.382;5.270;2023-08-12T10:08:29;7.68;;;2.15;;
47053;SDS011;32811;52.382;5.270;2023-08-12T10:10:57;4.63;;;1.40;;
47053;SDS011;32811;52.382;5.270;2023-08-12T10:13:38;5.78;;;1.23;;
47053;SDS011;32811;52.382;5.270;2023-08-12T10:16:06;6.50;;;1.30;;
47053;SDS011;32811;52.382;5.270;2023-08-12T10:18:34;2.88;;;0.98;;
47053;SDS011;32811;52.382;5.270;2023-08-12T10:21:02;3.67;;;1.35;;
47053;SDS011;32811;52.382;5.270;2023-08-12T10:23:29;4.45;;;1.10;;
47053;SDS011;32811;52.382;5.270;2023-08-12T10:25:56;5.60;;;0.90;;
47053;SDS011;32811;52.382;5.270;2023-08-12T10:28:26;5.28;;;1.10;;
47053;SDS011;32811;52.382;5.270;2023-08-12T10:30:52;6.55;;;1.83;;
47053;SDS011;32811;52.382;5.270;2023-08-12T10:33:19;7.50;;;1.10;;
47053;SDS011;32811;52.382;5.270;2023-08-12T10:35:46;6.25;;;0.88;;
47053;SDS011;32811;52.382;5.270;2023-08-12T10:38:17;4.18;;;1.10;;
47053;SDS011;32811;52.382;5.270;2023-08-12T10:40:44;4.15;;;0.90;;
47053;SDS011;32811;52.382;5.270;2023-08-12T10:43:12;8.20;;;1.15;;
47053;SDS011;32811;52.382;5.270;2023-08-12T10:50:54;7.47;;;2.47;;
47053;SDS011;32811;52.382;5.270;2023-08-12T10:53:23;12.35;;;1.23;;
47053;SDS011;32811;52.382;5.270;2023-08-12T10:55:56;3.30;;;1.00;;
47053;SDS011;32811;52.382;5.270;2023-08-12T10:58:24;5.05;;;0.90;;
47053;SDS011;32811;52.382;5.270;2023-08-12T11:00:55;11.77;;;1.50;;
47053;SDS011;32811;52.382;5.270;2023-08-12T11:03:23;6.63;;;1.33;;
47053;SDS011;32811;52.382;5.270;2023-08-12T11:05:50;4.95;;;1.60;;
47053;SDS011;32811;52.382;5.270;2023-08-12T11:08:17;8.60;;;1.10;;
47053;SDS011;32811;52.382;5.270;2023-08-12T11:10:44;7.43;;;1.55;;
47053;SDS011;32811;52.382;5.270;2023-08-12T11:13:10;4.38;;;1.25;;
47053;SDS011;32811;52.382;5.270;2023-08-12T11:15:38;7.47;;;1.73;;
47053;SDS011;32811;52.382;5.270;2023-08-12T11:18:08;5.15;;;2.08;;
47053;SDS011;32811;52.382;5.270;2023-08-12T11:20:36;5.45;;;1.75;;
47053;SDS011;32811;52.382;5.270;2023-08-12T11:23:04;4.22;;;1.52;;
47053;SDS011;32811;52.382;5.270;2023-08-12T11:25:32;5.70;;;1.63;;
47053;SDS011;32811;52.382;5.270;2023-08-12T11:28:00;3.58;;;1.00;;
47053;SDS011;32811;52.382;5.270;2023-08-12T11:30:26;4.65;;;1.10;;
47053;SDS011;32811;52.382;5.270;2023-08-12T11:32:58;4.78;;;1.58;;
47053;SDS011;32811;52.382;5.270;2023-08-12T11:35:25;4.70;;;0.95;;
47053;SDS011;32811;52.382;5.270;2023-08-12T11:37:53;3.55;;;0.85;;
47053;SDS011;32811;52.382;5.270;2023-08-12T11:40:22;7.00;;;1.10;;
47053;SDS011;32811;52.382;5.270;2023-08-12T11:42:50;6.25;;;1.20;;
47053;SDS011;32811;52.382;5.270;2023-08-12T11:45:19;5.07;;;1.30;;
47053;SDS011;32811;52.382;5.270;2023-08-12T11:47:47;10.70;;;1.25;;
47053;SDS011;32811;52.382;5.270;2023-08-12T11:50:19;7.10;;;1.02;;
47053;SDS011;32811;52.382;5.270;2023-08-12T11:52:53;6.53;;;1.48;;
47053;SDS011;32811;52.382;5.270;2023-08-12T11:55:22;7.65;;;1.15;;
47053;SDS011;32811;52.382;5.270;2023-08-12T11:57:50;8.93;;;1.80;;
47053;SDS011;32811;52.382;5.270;2023-08-12T12:00:18;6.10;;;1.35;;
47053;SDS011;32811;52.382;5.270;2023-08-12T12:02:49;10.05;;;1.58;;
47053;SDS011;32811;52.382;5.270;2023-08-12T12:05:18;8.75;;;1.70;;
47053;SDS011;32811;52.382;5.270;2023-08-12T12:07:50;6.07;;;1.33;;
47053;SDS011;32811;52.382;5.270;2023-08-12T12:10:21;8.88;;;2.05;;
47053;SDS011;32811;52.382;5.270;2023-08-12T12:12:59;10.90;;;1.98;;
47053;SDS011;32811;52.382;5.270;2023-08-12T12:15:26;6.57;;;1.13;;
47053;SDS011;32811;52.382;5.270;2023-08-12T12:17:53;10.25;;;1.80;;
47053;SDS011;32811;52.382;5.270;2023-08-12T12:20:20;9.18;;;1.35;;
47053;SDS011;32811;52.382;5.270;2023-08-12T12:22:48;6.93;;;1.17;;
47053;SDS011;32811;52.382;5.270;2023-08-12T12:25:15;6.20;;;1.73;;
47053;SDS011;32811;52.382;5.270;2023-08-12T12:27:45;5.00;;;1.40;;
47053;SDS011;32811;52.382;5.270;2023-08-12T12:30:13;6.20;;;1.75;;
47053;SDS011;32811;52.382;5.270;2023-08-12T12:32:41;7.30;;;1.70;;
47053;SDS011;32811;52.382;5.270;2023-08-12T12:35:08;4.85;;;1.30;;
47053;SDS011;32811;52.382;5.270;2023-08-12T12:37:35;8.55;;;1.88;;
47053;SDS011;32811;52.382;5.270;2023-08-12T12:40:03;6.60;;;1.17;;
47053;SDS011;32811;52.382;5.270;2023-08-12T12:42:31;10.18;;;1.63;;
47053;SDS011;32811;52.382;5.270;2023-08-12T12:44:58;6.53;;;1.63;;
47053;SDS011;32811;52.382;5.270;2023-08-12T12:47:24;8.85;;;1.48;;
47053;SDS011;32811;52.382;5.270;2023-08-12T12:49:51;6.90;;;1.20;;
47053;SDS011;32811;52.382;5.270;2023-08-12T12:52:18;10.25;;;1.65;;
47053;SDS011;32811;52.382;5.270;2023-08-12T12:54:44;7.93;;;1.58;;
47053;SDS011;32811;52.382;5.270;2023-08-12T12:57:11;8.80;;;1.33;;
47053;SDS011;32811;52.382;5.270;2023-08-12T12:59:38;6.45;;;1.38;;
47053;SDS011;32811;52.382;5.270;2023-08-12T13:02:04;5.00;;;1.27;;
47053;SDS011;32811;52.382;5.270;2023-08-12T13:04:32;8.45;;;3.20;;
47053;SDS011;32811;52.382;5.270;2023-08-12T13:07:00;5.18;;;1.10;;
47053;SDS011;32811;52.382;5.270;2023-08-12T13:09:27;7.95;;;1.42;;
47053;SDS011;32811;52.382;5.270;2023-08-12T13:11:53;14.85;;;1.83;;
47053;SDS011;32811;52.382;5.270;2023-08-12T13:14:23;8.95;;;2.30;;
47053;SDS011;32811;52.382;5.270;2023-08-12T13:16:50;6.35;;;1.85;;
47053;SDS011;32811;52.382;5.270;2023-08-12T13:19:17;8.20;;;1.27;;
47053;SDS011;32811;52.382;5.270;2023-08-12T13:21:44;10.02;;;2.20;;
47053;SDS011;32811;52.382;5.270;2023-08-12T13:24:11;9.07;;;1.25;;
47053;SDS011;32811;52.382;5.270;2023-08-12T13:26:37;8.05;;;1.17;;
47053;SDS011;32811;52.382;5.270;2023-08-12T13:29:04;8.63;;;1.70;;
47053;SDS011;32811;52.382;5.270;2023-08-12T13:31:31;11.93;;;1.98;;
47053;SDS011;32811;52.382;5.270;2023-08-12T13:33:58;4.30;;;1.35;;
47053;SDS011;32811;52.382;5.270;2023-08-12T13:36:24;10.88;;;1.85;;
47053;SDS011;32811;52.382;5.270;2023-08-12T13:38:51;10.15;;;2.13;;
47053;SDS011;32811;52.382;5.270;2023-08-12T13:41:18;8.00;;;2.40;;
47053;SDS011;32811;52.382;5.270;2023-08-12T13:43:44;8.40;;;1.55;;
47053;SDS011;32811;52.382;5.270;2023-08-12T13:46:11;8.27;;;1.20;;
47053;SDS011;32811;52.382;5.270;2023-08-12T13:48:39;6.78;;;1.20;;
47053;SDS011;32811;52.382;5.270;2023-08-12T13:51:06;7.97;;;1.17;;
47053;SDS011;32811;52.382;5.270;2023-08-12T13:53:32;11.10;;;2.60;;
47053;SDS011;32811;52.382;5.270;2023-08-12T13:55:59;12.38;;;2.00;;
47053;SDS011;32811;52.382;5.270;2023-08-12T13:58:26;8.85;;;1.83;;
47053;SDS011;32811;52.382;5.270;2023-08-12T14:00:53;7.13;;;1.27;;
47053;SDS011;32811;52.382;5.270;2023-08-12T14:03:19;8.35;;;1.50;;
47053;SDS011;32811;52.382;5.270;2023-08-12T14:05:46;12.75;;;2.70;;
47053;SDS011;32811;52.382;5.270;2023-08-12T14:08:13;7.10;;;2.15;;
47053;SDS011;32811;52.382;5.270;2023-08-12T14:10:40;8.32;;;1.60;;
47053;SDS011;32811;52.382;5.270;2023-08-12T14:13:07;9.95;;;2.25;;
47053;SDS011;32811;52.382;5.270;2023-08-12T14:15:33;9.98;;;1.20;;
47053;SDS011;32811;52.382;5.270;2023-08-12T14:18:01;5.50;;;1.05;;
47053;SDS011;32811;52.382;5.270;2023-08-12T14:20:28;4.85;;;1.30;;
47053;SDS011;32811;52.382;5.270;2023-08-12T14:22:54;6.82;;;3.05;;
47053;SDS011;32811;52.382;5.270;2023-08-12T14:25:21;4.07;;;1.00;;
47053;SDS011;32811;52.382;5.270;2023-08-12T14:27:48;9.18;;;1.45;;
47053;SDS011;32811;52.382;5.270;2023-08-12T14:30:17;5.68;;;1.10;;
47053;SDS011;32811;52.382;5.270;2023-08-12T14:32:45;10.30;;;1.55;;
47053;SDS011;32811;52.382;5.270;2023-08-12T14:35:13;10.55;;;1.27;;
47053;SDS011;32811;52.382;5.270;2023-08-12T14:37:39;6.70;;;1.23;;
47053;SDS011;32811;52.382;5.270;2023-08-12T14:40:06;6.60;;;1.73;;
47053;SDS011;32811;52.382;5.270;2023-08-12T14:42:34;6.32;;;1.77;;
47053;SDS011;32811;52.382;5.270;2023-08-12T14:45:01;8.45;;;1.55;;
47053;SDS011;32811;52.382;5.270;2023-08-12T14:47:29;7.25;;;1.50;;
47053;SDS011;32811;52.382;5.270;2023-08-12T14:49:56;13.02;;;2.00;;
47053;SDS011;32811;52.382;5.270;2023-08-12T14:52:23;5.93;;;1.67;;